Time;durP1;ratioP1;P1;durP2;ratioP2;P2;SDS_P1;SDS_P2;PMS_P1;PMS_P2;Temp;Humidity;BMP_temperature;BMP_pressure;BME280_temperature;BME280_humidity;BME280_pressure;Samples;Min_cycle;Max_cycle;Signal;HPM_P1;HPM_P2
2022/03/29 00:01:23;;;;;;;25.60;13.57;;;;;;;6.59;78.60;98479.22;4197051;28;20075;-71
2022/03/29 00:03:23;;;;;;;23.83;12.77;;;;;;;6.63;80.58;98488.38;4194606;28;20508;-71
2022/03/29 00:05:24;;;;;;;22.73;12.52;;;;;;;6.66;80.53;98479.41;4195343;28;20044;-71
2022/03/29 00:07:24;;;;;;;20.50;12.43;;;;;;;6.75;80.75;98482.00;4195487;28;20037;-71
2022/03/29 00:09:24;;;;;;;24.75;12.95;;;;;;;6.80;80.20;98481.75;4193645;28;20147;-71
2022/03/29 00:11:25;;;;;;;23.05;11.30;;;;;;;6.85;79.83;98473.22;4193965;28;20048;-71
2022/03/29 00:13:25;;;;;;;24.20;11.57;;;;;;;6.87;79.30;98467.34;4199535;28;20043;-71
2022/03/29 00:15:28;;;;;;;25.33;12.13;;;;;;;6.91;78.68;98469.06;4190588;28;20051;-71
2022/03/29 00:17:28;;;;;;;24.48;11.77;;;;;;;6.93;78.37;98465.94;4184711;28;20504;-71
2022/03/29 00:19:29;;;;;;;22.83;12.27;;;;;;;6.95;78.12;98458.97;4194813;28;20135;-71
2022/03/29 00:21:30;;;;;;;21.90;11.38;;;;;;;6.90;77.48;98452.91;4194878;28;20119;-71
2022/03/29 00:23:30;;;;;;;21.77;11.50;;;;;;;6.93;76.73;98450.25;4193712;28;20071;-71
2022/03/29 00:25:30;;;;;;;22.27;10.60;;;;;;;6.94;76.95;98449.09;4195391;28;20056;-71
2022/03/29 00:27:31;;;;;;;22.92;11.48;;;;;;;6.96;77.13;98454.25;4190132;28;20290;-71
2022/03/29 00:29:31;;;;;;;19.33;10.32;;;;;;;6.97;77.02;98447.59;4192474;28;20036;-71
2022/03/29 00:31:32;;;;;;;25.38;10.98;;;;;;;7.00;76.72;98439.41;4197390;28;20048;-71
2022/03/29 00:33:32;;;;;;;23.23;11.27;;;;;;;7.01;76.68;98441.00;4198288;28;20044;-71
2022/03/29 00:35:32;;;;;;;22.48;10.75;;;;;;;7.01;76.37;98445.72;4196568;28;20066;-71
2022/03/29 00:37:33;;;;;;;22.75;11.75;;;;;;;7.00;77.47;98444.13;4195512;28;20078;-71
2022/03/29 00:39:34;;;;;;;20.65;10.73;;;;;;;6.98;77.31;98435.44;4198127;28;20127;-71
2022/03/29 00:41:34;;;;;;;26.17;12.75;;;;;;;7.03;77.54;98437.91;4194731;28;20068;-71
2022/03/29 00:43:35;;;;;;;22.35;10.75;;;;;;;7.01;77.61;98437.47;4191566;28;20219;-71
2022/03/29 00:45:36;;;;;;;21.77;11.77;;;;;;;7.06;77.49;98441.91;4194092;28;20048;-71
2022/03/29 00:47:37;;;;;;;21.33;10.70;;;;;;;7.01;77.30;98429.22;4194765;28;20294;-71
2022/03/29 00:49:37;;;;;;;23.02;10.32;;;;;;;7.10;76.70;98440.84;4192010;28;20119;-71
2022/03/29 00:51:37;;;;;;;24.20;11.70;;;;;;;7.00;76.78;98430.38;4197721;28;20123;-71
2022/03/29 00:53:38;;;;;;;21.67;10.80;;;;;;;6.95;77.08;98430.63;4196056;28;20162;-71
2022/03/29 00:55:39;;;;;;;24.83;11.10;;;;;;;6.90;76.85;98436.41;4195793;28;20048;-71
2022/03/29 00:57:40;;;;;;;27.75;11.75;;;;;;;6.90;77.02;98430.91;4195192;28;20478;-71
2022/03/29 00:59:46;;;;;;;27.40;12.48;;;;;;;6.84;77.22;98424.88;4192044;28;20052;-71
2022/03/29 01:01:46;;;;;;;27.40;11.38;;;;;;;6.87;77.36;98435.19;4194175;28;20391;-71
2022/03/29 01:03:48;;;;;;;23.85;12.05;;;;;;;6.82;77.61;98415.38;4193068;28;20493;-71
2022/03/29 01:05:48;;;;;;;25.45;11.05;;;;;;;6.83;77.56;98423.28;4197464;28;20109;-71
2022/03/29 01:07:48;;;;;;;25.45;11.07;;;;;;;6.78;77.43;98407.03;4195483;28;20048;-71
2022/03/29 01:09:48;;;;;;;20.27;11.50;;;;;;;6.75;77.96;98408.53;4194434;28;20548;-71
2022/03/29 01:11:49;;;;;;;27.52;11.50;;;;;;;6.76;77.97;98412.09;4192565;28;20075;-71
2022/03/29 01:13:49;;;;;;;27.38;12.35;;;;;;;6.75;77.87;98408.53;4195396;28;20423;-71
2022/03/29 01:15:50;;;;;;;24.65;11.30;;;;;;;6.73;77.82;98408.09;4193631;28;20464;-71
2022/03/29 01:17:51;;;;;;;24.80;11.50;;;;;;;6.70;78.03;98406.06;4194965;28;20100;-71
2022/03/29 01:19:53;;;;;;;25.27;11.45;;;;;;;6.68;78.03;98402.06;4192250;28;20123;-71
2022/03/29 01:22:01;;;;;;;23.85;11.35;;;;;;;6.65;77.89;98403.56;4194343;28;20547;-71
2022/03/29 01:24:02;;;;;;;24.38;10.93;;;;;;;6.67;77.97;98401.25;4196309;28;20292;-71
2022/03/29 01:26:03;;;;;;;24.98;12.77;;;;;;;6.66;77.73;98393.38;4194271;28;20154;-71
2022/03/29 01:28:05;;;;;;;22.15;11.30;;;;;;;6.67;77.90;98393.03;4189641;28;20039;-71
2022/03/29 01:30:06;;;;;;;21.90;11.52;;;;;;;6.71;77.47;98395.88;4188750;28;20032;-71
2022/03/29 01:32:10;;;;;;;24.17;11.20;;;;;;;6.69;77.25;98390.72;4195391;28;20051;-71
2022/03/29 01:34:11;;;;;;;25.60;12.38;;;;;;;6.68;77.63;98386.38;4192481;28;20039;-71
2022/03/29 01:36:12;;;;;;;21.88;11.63;;;;;;;6.73;77.41;98383.34;4191310;28;20028;-71
2022/03/29 01:38:12;;;;;;;26.35;11.25;;;;;;;6.70;77.30;98384.09;4188405;28;20028;-71
2022/03/29 01:40:15;;;;;;;23.08;11.82;;;;;;;6.69;77.48;98371.47;4188765;28;20323;-71
2022/03/29 01:42:18;;;;;;;23.95;11.90;;;;;;;6.69;77.32;98374.22;4191981;28;20442;-71
2022/03/29 01:44:18;;;;;;;;;;;;;;;6.67;77.19;98368.28;4193449;28;20065;-71
2022/03/29 01:46:18;;;;;;;24.70;11.18;;;;;;;6.63;77.46;98372.91;4193118;28;19967;-71
2022/03/29 01:48:19;;;;;;;26.48;12.20;;;;;;;6.65;77.93;98364.28;4190951;28;20542;-71
2022/03/29 01:50:19;;;;;;;26.20;12.20;;;;;;;6.59;77.43;98361.00;4189896;28;20085;-71
2022/03/29 01:52:20;;;;;;;22.05;11.70;;;;;;;6.57;78.21;98368.00;4187629;28;20040;-71
2022/03/29 01:54:20;;;;;;;27.25;11.98;;;;;;;6.53;78.16;98362.41;4197796;28;20510;-71
2022/03/29 01:56:21;;;;;;;23.98;11.55;;;;;;;6.53;78.72;98358.88;4193798;28;20055;-71
2022/03/29 01:58:24;;;;;;;28.88;12.40;;;;;;;6.51;78.24;98355.69;4194038;28;20310;-71
2022/03/29 02:00:30;;;;;;;26.13;12.43;;;;;;;6.52;78.48;98360.03;4194343;28;20127;-71
2022/03/29 02:02:31;;;;;;;23.25;12.23;;;;;;;6.49;78.55;98358.78;4191403;28;20068;-71
2022/03/29 02:04:31;;;;;;;31.15;13.60;;;;;;;6.52;78.34;98360.03;4196209;28;20735;-71
2022/03/29 02:06:31;;;;;;;23.95;12.88;;;;;;;6.50;79.05;98363.13;4194831;28;20124;-71
2022/03/29 02:08:32;;;;;;;26.25;11.68;;;;;;;6.50;78.42;98354.88;4189748;28;20058;-71
2022/03/29 02:10:32;;;;;;;26.55;13.13;;;;;;;6.50;78.85;98345.84;4194784;28;20055;-71
2022/03/29 02:12:33;;;;;;;25.65;12.10;;;;;;;6.43;78.92;98350.00;4194429;28;20036;-71
2022/03/29 02:14:36;;;;;;;28.98;13.43;;;;;;;6.42;79.05;98347.59;4195953;28;20218;-71
2022/03/29 02:16:36;;;;;;;26.35;12.27;;;;;;;6.41;78.65;98340.50;4193301;28;20643;-71
2022/03/29 02:18:37;;;;;;;25.92;13.60;;;;;;;6.37;79.24;98339.63;4197218;28;20212;-71
2022/03/29 02:20:37;;;;;;;32.63;13.23;;;;;;;6.33;79.71;98342.28;4196949;28;20729;-71
2022/03/29 02:22:37;;;;;;;25.20;12.80;;;;;;;6.29;79.83;98330.41;4197560;28;20472;-71
2022/03/29 02:24:38;;;;;;;30.80;13.20;;;;;;;6.26;80.41;98331.09;4191727;28;20048;-71
2022/03/29 02:26:38;;;;;;;27.88;13.38;;;;;;;6.25;80.94;98334.22;4196634;28;20102;-71
2022/03/29 02:28:38;;;;;;;30.05;12.75;;;;;;;6.22;80.94;98340.41;4194273;28;20495;-71
2022/03/29 02:30:39;;;;;;;32.00;13.43;;;;;;;6.18;81.69;98337.56;4196652;28;20041;-71
2022/03/29 02:32:39;;;;;;;31.35;13.07;;;;;;;6.09;82.39;98336.94;4197572;28;20043;-71
2022/03/29 02:34:39;;;;;;;29.77;13.43;;;;;;;6.00;83.05;98337.09;4196471;28;20036;-71
2022/03/29 02:36:39;;;;;;;26.73;13.02;;;;;;;6.02;82.75;98333.97;4196676;28;20404;-71
2022/03/29 02:38:40;;;;;;;29.00;13.48;;;;;;;6.00;82.33;98342.59;4198493;28;20048;-71
2022/03/29 02:40:40;;;;;;;31.02;13.73;;;;;;;5.91;82.57;98326.25;4198189;28;20048;-71
2022/03/29 02:42:48;;;;;;;32.33;14.00;;;;;;;5.85;84.27;98324.88;4196093;28;20424;-71
2022/03/29 02:44:48;;;;;;;36.42;14.57;;;;;;;5.82;84.38;98330.28;4198221;28;20040;-71
2022/03/29 02:46:49;;;;;;;35.15;15.18;;;;;;;5.72;84.60;98337.09;4197107;28;20059;-71
2022/03/29 02:48:49;;;;;;;32.05;14.93;;;;;;;5.74;84.01;98326.53;4197869;28;20135;-71
2022/03/29 02:50:49;;;;;;;34.20;14.60;;;;;;;5.70;83.71;98333.06;4193952;28;20059;-71
2022/03/29 02:52:52;;;;;;;30.52;13.65;;;;;;;5.64;84.36;98333.34;4196334;28;20044;-71
2022/03/29 02:54:52;;;;;;;;;;;;;;;5.59;85.22;98327.28;4193521;28;20135;-71
2022/03/29 02:56:53;;;;;;;28.90;14.00;;;;;;;5.53;86.62;98331.41;4195916;28;19924;-71
2022/03/29 02:58:53;;;;;;;34.97;15.20;;;;;;;5.48;86.11;98321.50;4196135;28;20040;-71
2022/03/29 03:00:53;;;;;;;32.92;14.75;;;;;;;5.41;86.73;98320.50;4195294;28;20308;-71
2022/03/29 03:02:55;;;;;;;31.15;14.70;;;;;;;5.39;87.21;98314.56;4201348;28;20083;-71
2022/03/29 03:04:55;;;;;;;34.78;15.52;;;;;;;5.38;87.04;98316.50;4192332;28;20496;-71
2022/03/29 03:06:55;;;;;;;33.80;16.42;;;;;;;5.33;87.28;98316.75;4198331;28;20242;-71
2022/03/29 03:08:56;;;;;;;33.25;15.02;;;;;;;5.34;86.49;98318.34;4197002;28;20690;-71
2022/03/29 03:10:56;;;;;;;36.38;15.60;;;;;;;5.33;87.07;98320.28;4199760;28;20043;-71
2022/03/29 03:12:57;;;;;;;34.83;15.18;;;;;;;5.32;86.63;98315.16;4196078;28;20064;-71
2022/03/29 03:14:57;;;;;;;35.40;15.38;;;;;;;5.25;87.82;98310.25;4196677;28;20133;-71
2022/03/29 03:16:57;;;;;;;36.67;15.15;;;;;;;5.21;87.87;98305.78;4196509;28;20122;-71
2022/03/29 03:18:58;;;;;;;36.25;15.77;;;;;;;5.25;88.74;98310.25;4197091;28;20437;-71
2022/03/29 03:20:58;;;;;;;33.72;14.43;;;;;;;5.25;88.67;98309.44;4194170;28;20935;-71
2022/03/29 03:22:58;;;;;;;40.15;16.10;;;;;;;5.23;87.63;98307.06;4201564;28;20047;-71
2022/03/29 03:24:59;;;;;;;38.15;16.15;;;;;;;5.21;88.35;98298.38;4195682;28;20083;-71
2022/03/29 03:26:59;;;;;;;36.00;15.80;;;;;;;5.21;87.16;98295.63;4195172;28;20044;-71
2022/03/29 03:28:59;;;;;;;33.50;15.13;;;;;;;5.24;87.17;98296.88;4196771;28;20032;-71
2022/03/29 03:31:00;;;;;;;38.17;16.13;;;;;;;5.27;87.49;98296.16;4200068;28;20040;-71
2022/03/29 03:33:00;;;;;;;33.35;14.77;;;;;;;5.22;88.22;98293.69;4192567;28;20049;-71
2022/03/29 03:35:01;;;;;;;43.20;16.00;;;;;;;5.22;88.30;98299.19;4194921;28;20044;-71
2022/03/29 03:37:05;;;;;;;38.03;16.10;;;;;;;5.19;88.82;98300.66;4187986;28;20040;-71
2022/03/29 03:39:05;;;;;;;35.72;16.05;;;;;;;5.17;88.91;98302.16;4195651;28;20028;-71
2022/03/29 03:41:05;;;;;;;33.78;15.60;;;;;;;5.14;87.24;98291.88;4194528;28;20162;-71
2022/03/29 03:43:05;;;;;;;32.10;15.30;;;;;;;5.10;87.77;98296.44;4192784;28;20481;-71
2022/03/29 03:45:07;;;;;;;34.38;15.57;;;;;;;5.07;88.02;98290.50;4198359;28;20922;-71
2022/03/29 03:47:10;;;;;;;41.78;18.08;;;;;;;5.00;89.68;98292.25;4195241;28;20040;-71
2022/03/29 03:49:11;;;;;;;39.30;17.60;;;;;;;4.94;89.10;98294.41;4194089;28;20049;-71
2022/03/29 03:51:11;;;;;;;41.47;15.35;;;;;;;4.92;88.96;98293.16;4193237;28;20383;-71
2022/03/29 03:53:12;;;;;;;35.30;16.02;;;;;;;4.87;90.25;98296.13;4192181;28;20052;-71
2022/03/29 03:55:12;;;;;;;34.03;15.38;;;;;;;4.83;90.06;98287.81;4188172;28;20040;-71
2022/03/29 03:57:13;;;;;;;40.35;16.92;;;;;;;4.84;90.24;98285.88;4193265;28;20047;-71
2022/03/29 03:59:13;;;;;;;36.35;17.13;;;;;;;4.76;91.37;98276.63;4190001;28;20045;-71
2022/03/29 04:01:14;;;;;;;41.35;16.58;;;;;;;4.76;91.48;98282.09;4194731;28;20058;-71
2022/03/29 04:03:14;;;;;;;37.80;16.83;;;;;;;4.73;91.57;98280.06;4193949;28;20478;-71
2022/03/29 04:05:14;;;;;;;34.70;16.73;;;;;;;4.71;91.08;98272.16;4192101;28;20056;-73
2022/03/29 04:07:15;;;;;;;43.50;16.67;;;;;;;4.71;91.45;98269.44;4190914;28;20047;-71
2022/03/29 04:09:15;;;;;;;46.13;17.95;;;;;;;4.69;91.03;98274.47;4193357;28;20322;-71
2022/03/29 04:11:16;;;;;;;38.08;16.98;;;;;;;4.65;90.83;98268.09;4193962;28;20579;-71
2022/03/29 04:13:16;;;;;;;38.30;16.88;;;;;;;4.77;87.75;98280.97;4194611;28;20052;-71
2022/03/29 04:15:16;;;;;;;36.60;16.45;;;;;;;4.72;88.40;98275.72;4190844;28;20431;-71
2022/03/29 04:17:17;;;;;;;36.83;16.05;;;;;;;4.64;89.17;98268.44;4188283;28;20388;-71
2022/03/29 04:19:17;;;;;;;34.97;15.70;;;;;;;4.57;90.03;98266.25;4193609;28;20032;-71
2022/03/29 04:21:18;;;;;;;36.70;16.33;;;;;;;4.51;90.79;98262.94;4190173;28;20336;-71
2022/03/29 04:23:18;;;;;;;35.25;15.65;;;;;;;4.47;90.89;98261.25;4193067;28;20042;-71
2022/03/29 04:25:18;;;;;;;37.60;17.13;;;;;;;4.40;91.85;98258.28;4193782;28;20051;-71
2022/03/29 04:27:19;;;;;;;37.50;15.93;;;;;;;4.36;92.28;98252.66;4190579;28;20046;-71
2022/03/29 04:29:19;;;;;;;36.35;16.75;;;;;;;4.30;93.95;98259.50;4190966;28;20329;-71
2022/03/29 04:31:19;;;;;;;47.22;18.77;;;;;;;4.26;95.37;98260.56;4193028;28;20140;-71
2022/03/29 04:33:20;;;;;;;42.47;19.48;;;;;;;4.21;95.07;98272.50;4190234;28;20090;-71
2022/03/29 04:35:20;;;;;;;44.25;19.63;;;;;;;4.20;95.80;98270.91;4189038;28;20086;-71
2022/03/29 04:37:24;;;;;;;48.20;18.77;;;;;;;4.19;95.06;98274.81;4192089;28;20078;-71
2022/03/29 04:39:25;;;;;;;42.13;17.67;;;;;;;4.13;95.30;98274.22;4194397;28;20080;-71
2022/03/29 04:41:25;;;;;;;40.80;19.23;;;;;;;4.10;95.25;98274.09;4191157;28;20048;-71
2022/03/29 04:43:25;;;;;;;37.63;18.08;;;;;;;4.08;94.30;98284.59;4196913;28;20056;-71
2022/03/29 04:45:26;;;;;;;37.63;17.90;;;;;;;4.06;94.67;98274.00;4194516;28;20051;-71
2022/03/29 04:47:26;;;;;;;42.88;20.00;;;;;;;4.00;95.18;98271.81;4192940;28;20124;-71
2022/03/29 04:49:27;;;;;;;43.90;21.00;;;;;;;3.98;95.18;98283.13;4189594;28;20510;-71
2022/03/29 04:51:27;;;;;;;51.75;22.23;;;;;;;3.91;98.72;98288.34;4189454;28;20056;-73
2022/03/29 04:53:27;;;;;;;44.95;20.48;;;;;;;3.92;99.42;98284.47;4195464;28;20087;-73
2022/03/29 04:55:27;;;;;;;50.92;22.98;;;;;;;3.89;99.69;98285.94;4135951;28;20043;-71
2022/03/29 04:57:28;;;;;;;49.70;20.65;;;;;;;3.95;100.00;98281.84;4195311;28;20177;-71
2022/03/29 04:59:28;;;;;;;46.17;20.63;;;;;;;3.90;99.85;98282.06;4188027;28;20044;-73
2022/03/29 05:01:28;;;;;;;47.63;23.42;;;;;;;3.81;99.70;98283.31;4192429;28;20131;-73
2022/03/29 05:03:31;;;;;;;50.97;21.48;;;;;;;3.69;100.00;98286.00;4193451;28;20059;-73
2022/03/29 05:05:32;;;;;;;52.70;22.33;;;;;;;3.62;100.00;98284.59;4188651;28;20427;-73
2022/03/29 05:07:32;;;;;;;49.97;23.10;;;;;;;3.67;100.00;98286.34;4193292;28;20262;-73
2022/03/29 05:09:32;;;;;;;49.40;21.83;;;;;;;3.66;100.00;98279.25;4190092;28;20086;-73
2022/03/29 05:11:33;;;;;;;50.60;21.75;;;;;;;3.67;100.00;98264.44;4195288;28;20764;-73
2022/03/29 05:13:33;;;;;;;51.90;22.55;;;;;;;3.69;100.00;98270.38;4197757;28;20030;-73
2022/03/29 05:15:34;;;;;;;54.20;23.13;;;;;;;3.74;100.00;98275.63;4194410;28;20476;-73
2022/03/29 05:17:35;;;;;;;51.15;22.77;;;;;;;3.72;100.00;98277.88;4186412;28;20048;-73
2022/03/29 05:19:35;;;;;;;49.40;22.02;;;;;;;3.70;100.00;98265.69;4195167;28;20039;-73
2022/03/29 05:21:35;;;;;;;50.67;21.70;;;;;;;3.66;100.00;98262.84;4195924;28;20206;-72
2022/03/29 05:23:36;;;;;;;51.88;22.30;;;;;;;3.67;100.00;98262.50;4192769;28;20418;-73
2022/03/29 05:25:36;;;;;;;49.45;21.52;;;;;;;3.68;100.00;98260.56;4194186;28;20057;-73
2022/03/29 05:27:37;;;;;;;49.50;21.58;;;;;;;3.69;100.00;98253.94;4192881;28;20044;-73
2022/03/29 05:29:37;;;;;;;52.42;21.75;;;;;;;3.69;100.00;98261.38;4195787;28;20254;-73
2022/03/29 05:31:38;;;;;;;55.28;25.23;;;;;;;3.78;100.00;98254.66;4193924;28;20044;-73
2022/03/29 05:33:38;;;;;;;56.35;24.23;;;;;;;3.87;100.00;98260.03;4184819;28;20170;-72
2022/03/29 05:35:39;;;;;;;53.95;23.15;;;;;;;3.84;100.00;98257.97;4189027;28;20037;-72
2022/03/29 05:37:41;;;;;;;58.63;23.05;;;;;;;3.77;100.00;98261.28;4194916;28;20106;-72
2022/03/29 05:39:43;;;;;;;53.83;22.45;;;;;;;3.79;100.00;98261.72;4195052;28;20040;-72
2022/03/29 05:41:43;;;;;;;48.65;21.83;;;;;;;3.78;100.00;98268.34;4194263;28;20345;-72
2022/03/29 05:43:43;;;;;;;50.65;22.02;;;;;;;3.79;100.00;98266.41;4190679;28;20063;-72
2022/03/29 05:48:51;;;;;;;53.80;23.50;;;;;;;3.77;100.00;98276.88;4195164;28;20101;-72
2022/03/29 05:50:25;;;;;;;48.65;21.48;;;;;;;3.71;100.00;98261.81;4196368;28;20542;-72
2022/03/29 05:52:25;;;;;;;51.08;21.83;;;;;;;3.70;100.00;98265.69;4191309;28;20046;-72
2022/03/29 05:54:26;;;;;;;51.10;21.83;;;;;;;3.71;100.00;98265.34;4196984;28;20421;-72
2022/03/29 05:56:27;;;;;;;46.78;21.27;;;;;;;3.76;100.00;98267.88;4197900;28;20263;-72
2022/03/29 05:58:28;;;;;;;57.00;22.50;;;;;;;3.71;100.00;98264.56;4196850;28;20041;-72
2022/03/29 06:00:30;;;;;;;57.03;23.80;;;;;;;3.77;100.00;98260.47;4198617;28;20050;-72
2022/03/29 06:02:31;;;;;;;49.35;21.80;;;;;;;3.72;100.00;98256.00;4195404;28;20267;-72
2022/03/29 06:04:32;;;;;;;48.60;23.17;;;;;;;3.74;100.00;98261.97;4197247;28;20388;-72
2022/03/29 06:06:37;;;;;;;52.10;22.23;;;;;;;3.78;100.00;98262.88;4196092;28;20040;-72
2022/03/29 06:08:37;;;;;;;56.35;22.23;;;;;;;3.85;100.00;98267.78;4198319;28;20089;-72
2022/03/29 06:10:38;;;;;;;50.20;20.50;;;;;;;3.86;100.00;98267.44;4198041;28;20131;-72
2022/03/29 06:12:38;;;;;;;58.70;22.67;;;;;;;3.89;100.00;98276.94;4196165;28;20119;-72
2022/03/29 06:14:39;;;;;;;55.97;23.77;;;;;;;3.91;100.00;98264.50;4198712;28;20043;-72
2022/03/29 06:16:40;;;;;;;60.80;23.90;;;;;;;3.98;100.00;98263.16;4193127;28;20067;-72
2022/03/29 06:18:40;;;;;;;46.88;21.58;;;;;;;4.02;100.00;98264.84;4198198;28;20198;-72
2022/03/29 06:20:41;;;;;;;56.45;23.13;;;;;;;4.04;100.00;98268.03;4187943;28;20144;-72
2022/03/29 06:22:44;;;;;;;57.47;24.70;;;;;;;4.05;100.00;98258.69;4198116;28;20044;-72
2022/03/29 06:24:46;;;;;;;87.40;34.00;;;;;;;4.06;100.00;98268.53;4197630;28;20043;-72
2022/03/29 06:26:46;;;;;;;69.30;29.27;;;;;;;4.15;100.00;98266.47;4194195;28;20045;-72
2022/03/29 06:28:46;;;;;;;53.55;23.42;;;;;;;4.23;100.00;98268.31;4198413;28;20178;-72
2022/03/29 06:30:47;;;;;;;50.03;23.65;;;;;;;4.25;100.00;98273.44;4196487;28;20469;-72
2022/03/29 06:32:50;;;;;;;52.42;23.30;;;;;;;4.31;100.00;98271.28;4196653;28;20395;-72
2022/03/29 06:34:50;;;;;;;56.85;23.05;;;;;;;4.36;100.00;98274.59;4196354;28;20182;-72
2022/03/29 06:36:51;;;;;;;55.20;22.73;;;;;;;4.45;100.00;98285.44;4201204;28;20489;-72
2022/03/29 06:38:52;;;;;;;56.33;24.63;;;;;;;4.50;100.00;98277.00;4197519;28;20116;-72
2022/03/29 06:40:54;;;;;;;56.38;24.45;;;;;;;4.55;100.00;98281.44;4194843;28;20150;-72
2022/03/29 06:42:57;;;;;;;57.17;26.27;;;;;;;4.64;98.82;98282.94;4197797;28;20048;-72
2022/03/29 06:44:57;;;;;;;53.35;25.08;;;;;;;4.76;97.80;98282.09;4195243;28;20547;-72
2022/03/29 06:46:58;;;;;;;66.72;31.42;;;;;;;4.84;97.81;98278.44;4195833;28;20040;-72
2022/03/29 06:48:58;;;;;;;54.00;26.98;;;;;;;4.91;96.05;98284.16;4195159;28;20040;-72
2022/03/29 06:50:58;;;;;;;56.30;26.70;;;;;;;5.00;95.96;98282.06;4195212;28;20040;-72
2022/03/29 06:52:59;;;;;;;48.25;23.38;;;;;;;5.05;95.46;98281.84;4195323;28;20052;-72
2022/03/29 06:54:59;;;;;;;50.38;24.42;;;;;;;5.10;96.02;98282.72;4194914;28;20049;-72
2022/03/29 06:57:00;;;;;;;50.85;24.15;;;;;;;5.16;95.28;98284.91;4195675;28;20522;-72
2022/03/29 06:59:00;;;;;;;56.85;24.58;;;;;;;5.22;95.17;98283.53;4195235;28;20054;-72
2022/03/29 07:01:00;;;;;;;55.58;23.88;;;;;;;5.29;94.42;98282.91;4197679;28;20032;-72
2022/03/29 07:03:01;;;;;;;51.28;24.10;;;;;;;5.33;94.58;98278.34;4195243;28;20059;-72
2022/03/29 07:05:02;;;;;;;54.97;25.05;;;;;;;5.36;94.57;98274.88;4195236;28;20092;-72
2022/03/29 07:07:03;;;;;;;46.60;22.13;;;;;;;5.43;93.96;98277.03;4194848;28;20040;-72
2022/03/29 07:11:24;;;;;;;43.50;21.13;;;;;;;5.62;92.96;98282.66;4190509;28;20108;-72
2022/03/29 07:13:24;;;;;;;;;;;;;;;5.66;91.98;98282.78;4197275;28;20108;-72
2022/03/29 07:15:25;;;;;;;47.45;19.92;;;;;;;5.68;91.61;98274.97;4192475;28;19927;-72
2022/03/29 07:17:26;;;;;;;57.10;25.02;;;;;;;5.72;91.67;98268.47;4196078;28;20043;-72
2022/03/29 07:19:27;;;;;;;46.30;23.23;;;;;;;5.72;90.52;98276.69;4196071;28;20147;-72
2022/03/29 07:21:27;;;;;;;46.40;22.27;;;;;;;5.62;90.18;98274.44;4193350;28;20085;-72
2022/03/29 07:23:29;;;;;;;47.40;21.40;;;;;;;5.75;90.43;98273.22;4191632;28;20041;-72
2022/03/29 07:25:32;;;;;;;41.73;20.43;;;;;;;5.79;88.83;98267.81;4197750;28;20304;-72
2022/03/29 07:27:32;;;;;;;44.97;20.75;;;;;;;5.90;89.16;98279.91;4194251;28;20274;-72
2022/03/29 07:29:33;;;;;;;39.38;20.40;;;;;;;5.85;88.84;98261.72;4197536;28;20218;-72
2022/03/29 07:31:34;;;;;;;39.58;20.58;;;;;;;5.85;89.24;98260.94;4192346;28;20784;-72
2022/03/29 07:33:34;;;;;;;47.30;21.35;;;;;;;5.79;89.88;98265.09;4196114;28;20067;-72
2022/03/29 07:35:35;;;;;;;40.72;19.92;;;;;;;5.83;90.08;98271.47;4198047;28;20498;-72
2022/03/29 07:37:35;;;;;;;46.45;21.30;;;;;;;5.87;90.32;98261.38;4194960;28;20043;-72
2022/03/29 07:39:35;;;;;;;39.80;19.60;;;;;;;5.99;89.80;98261.34;4194115;28;20416;-72
2022/03/29 07:41:36;;;;;;;41.25;20.17;;;;;;;6.07;89.69;98265.88;4195019;28;20097;-72
2022/03/29 07:43:36;;;;;;;46.67;20.20;;;;;;;6.02;88.90;98255.13;4156806;28;1069569;-72
2022/03/29 07:45:37;;;;;;;45.35;22.25;;;;;;;6.14;88.74;98263.31;4192722;28;20048;-72
2022/03/29 07:47:38;;;;;;;42.90;19.10;;;;;;;6.23;89.23;98259.59;4197157;28;20143;-73
2022/03/29 07:49:38;;;;;;;53.25;21.90;;;;;;;6.34;87.95;98258.69;4193598;28;20461;-72
2022/03/29 07:51:39;;;;;;;42.25;19.88;;;;;;;6.37;86.85;98265.41;4196158;28;20044;-72
2022/03/29 07:53:41;;;;;;;46.92;19.92;;;;;;;6.43;86.76;98264.00;4195686;28;20145;-72
2022/03/29 07:55:41;;;;;;;38.60;18.98;;;;;;;6.47;86.62;98264.91;4197165;28;20045;-72
2022/03/29 07:57:42;;;;;;;44.47;20.63;;;;;;;6.52;86.12;98259.13;4195374;28;20117;-72
2022/03/29 07:59:42;;;;;;;38.38;19.45;;;;;;;6.64;85.28;98255.47;4191646;28;20039;-72
2022/03/29 08:01:43;;;;;;;47.08;21.75;;;;;;;6.68;85.13;98248.91;4196523;28;20134;-72
2022/03/29 08:03:43;;;;;;;41.80;19.75;;;;;;;6.78;84.43;98255.78;4193772;28;20166;-72
2022/03/29 08:05:45;;;;;;;47.33;22.02;;;;;;;6.82;84.51;98247.63;4195576;28;20089;-72
2022/03/29 08:07:46;;;;;;;37.00;18.83;;;;;;;6.83;83.09;98250.03;4191188;28;20036;-72
2022/03/29 08:09:46;;;;;;;41.60;19.63;;;;;;;6.88;83.04;98247.00;4193416;28;20036;-72
2022/03/29 08:11:46;;;;;;;40.42;19.48;;;;;;;6.94;82.99;98256.56;4195938;28;20125;-72
2022/03/29 08:13:47;;;;;;;36.75;19.40;;;;;;;6.94;83.75;98251.03;4194151;28;20240;-72
2022/03/29 08:15:49;;;;;;;38.58;18.90;;;;;;;7.02;82.95;98249.25;4194915;28;20040;-72
2022/03/29 08:17:50;;;;;;;42.75;21.85;;;;;;;7.07;82.24;98240.72;4193858;28;20350;-72
2022/03/29 08:19:50;;;;;;;39.75;20.52;;;;;;;7.14;83.14;98240.88;4194353;28;20044;-72
2022/03/29 08:21:51;;;;;;;42.30;21.05;;;;;;;7.20;82.21;98238.63;4195612;28;20651;-72
2022/03/29 08:23:52;;;;;;;45.67;21.90;;;;;;;7.19;81.75;98239.78;4194440;28;20040;-72
2022/03/29 08:25:52;;;;;;;44.65;20.75;;;;;;;7.17;81.67;98239.34;4196341;28;20139;-72
2022/03/29 08:27:56;;;;;;;38.78;19.08;;;;;;;7.28;81.36;98232.94;4195469;28;20067;-72
2022/03/29 08:29:56;;;;;;;41.47;21.23;;;;;;;7.33;81.78;98221.63;4197432;28;20110;-72
2022/03/29 08:31:57;;;;;;;39.78;20.40;;;;;;;7.45;81.96;98228.16;4193958;28;20040;-72
2022/03/29 08:33:57;;;;;;;40.72;19.33;;;;;;;7.49;80.95;98224.28;4194517;28;20514;-72
2022/03/29 08:35:57;;;;;;;39.00;19.20;;;;;;;7.59;80.89;98229.19;4193354;28;20043;-72
2022/03/29 08:37:58;;;;;;;35.28;19.30;;;;;;;7.68;79.83;98222.66;4195904;28;20071;-72
2022/03/29 08:39:58;;;;;;;34.28;18.75;;;;;;;7.75;79.12;98240.13;4193673;28;20062;-72
2022/03/29 08:42:05;;;;;;;40.83;20.40;;;;;;;7.80;77.88;98231.56;4191429;28;20052;-72
2022/03/29 08:44:09;;;;;;;34.47;19.40;;;;;;;7.73;78.00;98231.44;4199788;28;20138;-72
2022/03/29 08:46:10;;;;;;;34.72;18.75;;;;;;;7.81;77.07;98221.34;4193779;28;20103;-72
2022/03/29 08:48:11;;;;;;;39.80;19.80;;;;;;;7.85;78.47;98222.19;4194504;28;20091;-72
2022/03/29 08:50:14;;;;;;;35.42;18.58;;;;;;;7.81;77.48;98221.34;4197869;28;20040;-72
2022/03/29 08:52:17;;;;;;;37.85;18.55;;;;;;;7.84;76.50;98217.84;4191111;28;20040;-72
2022/03/29 08:54:19;;;;;;;35.63;18.02;;;;;;;7.94;77.03;98217.25;4194183;28;20089;-72
2022/03/29 08:56:20;;;;;;;42.22;20.48;;;;;;;8.07;76.50;98218.66;4195289;28;20427;-72
2022/03/29 08:58:22;;;;;;;35.85;19.23;;;;;;;8.13;76.63;98219.94;4192182;28;20048;-72
2022/03/29 09:00:26;;;;;;;41.08;20.27;;;;;;;8.22;75.55;98213.41;4194479;28;20120;-72
2022/03/29 09:02:33;;;;;;;35.17;19.67;;;;;;;8.29;76.54;98217.06;4192473;28;20045;-72
2022/03/29 09:04:33;;;;;;;39.90;19.85;;;;;;;8.34;75.18;98225.00;4196072;28;20127;-72
2022/03/29 09:06:54;;;;;;;36.67;18.90;;;;;;;8.40;75.13;98220.81;4193546;28;20075;-72
2022/03/29 09:08:55;;;;;;;35.35;18.95;;;;;;;8.46;74.55;98223.25;4195486;28;20044;-72
2022/03/29 09:10:57;;;;;;;38.42;18.50;;;;;;;8.46;74.41;98217.75;4193553;28;20040;-72
2022/03/29 09:13:14;;;;;;;37.13;18.85;;;;;;;8.50;74.33;98216.63;4193007;28;20052;-72
2022/03/29 09:15:16;;;;;;;34.45;20.27;;;;;;;8.38;74.09;98222.34;4192702;28;20500;-72
2022/03/29 09:17:38;;;;;;;36.25;19.38;;;;;;;8.47;74.02;98211.06;4193352;28;20041;-72
2022/03/29 09:19:48;;;;;;;33.28;17.75;;;;;;;8.49;74.06;98217.78;4195058;28;20496;-72
2022/03/29 09:21:49;;;;;;;35.20;19.40;;;;;;;8.53;74.46;98204.88;4196253;28;20953;-72
2022/03/29 09:24:11;;;;;;;38.92;18.98;;;;;;;8.60;72.87;98217.94;4195893;28;20071;-72
2022/03/29 09:26:27;;;;;;;37.13;18.90;;;;;;;8.62;73.93;98210.13;4195323;28;20073;-72
2022/03/29 09:28:38;;;;;;;33.90;16.67;;;;;;;8.66;73.18;98203.47;4193323;28;20050;-72